Time;durP1;ratioP1;P1;durP2;ratioP2;P2;SDS_P1;SDS_P2;PMS_P1;PMS_P2;Temp;Humidity;BMP_temperature;BMP_pressure;BME280_temperature;BME280_humidity;BME280_pressure;Samples;Min_cycle;Max_cycle;Signal;HPM_P1;HPM_P2
2021/11/22 00:00:42;;;;;;;9.40;6.75;;;;;;;8.66;61.65;98195.69;5036258;28;20028;-48
2021/11/22 00:03:08;;;;;;;9.57;6.32;;;;;;;8.62;61.96;98189.25;5054217;28;20059;-48
2021/11/22 00:05:34;;;;;;;8.30;6.72;;;;;;;8.65;61.67;98191.47;5036120;28;20032;-49
2021/11/22 00:08:00;;;;;;;10.25;6.57;;;;;;;8.67;61.99;98181.59;5054053;28;20025;-48
2021/11/22 00:10:26;;;;;;;9.73;6.53;;;;;;;8.75;62.24;98179.63;5054011;28;20102;-49
2021/11/22 00:12:52;;;;;;;8.35;6.20;;;;;;;8.97;61.44;98176.78;5053866;28;20048;-49
2021/11/22 00:15:19;;;;;;;17.95;11.30;;;;;;;9.09;61.45;98184.81;5035968;28;20108;-49
2021/11/22 00:17:46;;;;;;;9.00;7.72;;;;;;;9.17;60.90;98182.00;5053808;28;20021;-49
2021/11/22 00:20:17;;;;;;;8.27;6.93;;;;;;;9.13;60.85;98180.78;5053809;28;20025;-50
2021/11/22 00:22:43;;;;;;;8.70;7.47;;;;;;;9.09;60.57;98185.63;5053808;28;20495;-49
2021/11/22 00:25:11;;;;;;;10.43;7.20;;;;;;;8.82;61.24;98181.44;5053623;28;20029;-49
2021/11/22 00:27:38;;;;;;;8.45;6.68;;;;;;;8.64;61.97;98174.97;5053580;28;20041;-47
2021/11/22 00:30:05;;;;;;;15.07;7.43;;;;;;;8.64;62.58;98182.00;5053471;28;20115;-49
2021/11/22 00:32:35;;;;;;;10.38;6.32;;;;;;;8.70;62.33;98179.41;5053460;28;20090;-49
2021/11/22 00:35:06;;;;;;;7.97;6.18;;;;;;;8.72;61.79;98179.19;5035551;28;20032;-49
2021/11/22 00:37:34;;;;;;;13.60;7.45;;;;;;;8.74;61.96;98177.19;5053424;28;20021;-49
2021/11/22 00:40:01;;;;;;;10.57;5.70;;;;;;;8.75;61.63;98168.31;5053385;28;20021;-48
2021/11/22 00:42:27;;;;;;;8.82;5.30;;;;;;;8.80;61.79;98171.94;5053284;28;20235;-48
2021/11/22 00:44:54;;;;;;;27.50;18.58;;;;;;;8.75;61.30;98170.94;5035470;28;20021;-49
2021/11/22 00:47:20;;;;;;;9.40;7.10;;;;;;;8.70;61.67;98170.75;5053227;28;20387;-48
2021/11/22 00:49:47;;;;;;;8.52;5.93;;;;;;;8.69;61.54;98171.75;5035313;28;20032;-48
2021/11/22 00:52:13;;;;;;;18.75;7.07;;;;;;;8.57;61.42;98172.34;5053095;28;20031;-49
2021/11/22 00:54:39;;;;;;;7.70;6.55;;;;;;;8.47;61.86;98171.94;5053408;28;20021;-48
2021/11/22 00:57:05;;;;;;;1999.90;999.90;;;;;;;8.39;61.98;98179.91;5053041;28;20048;-48
2021/11/22 00:59:31;;;;;;;218.35;150.57;;;;;;;8.37;62.34;98176.69;5053017;28;20498;-48
2021/11/22 01:01:57;;;;;;;155.77;126.60;;;;;;;8.30;63.09;98179.31;5052925;28;20036;-48
2021/11/22 01:04:23;;;;;;;286.98;223.70;;;;;;;8.33;63.10;98176.31;5052898;28;20017;-48
2021/11/22 01:06:49;;;;;;;71.90;60.10;;;;;;;8.38;63.11;98180.94;5052891;28;20021;-49
2021/11/22 01:09:15;;;;;;;42.10;22.48;;;;;;;8.42;63.05;98184.00;5034986;28;20027;-49
2021/11/22 01:11:41;;;;;;;16.92;11.45;;;;;;;8.51;62.54;98186.22;5052689;28;20391;-48
2021/11/22 01:14:08;;;;;;;15.35;10.75;;;;;;;8.54;62.15;98188.44;5034880;28;20460;-49
2021/11/22 01:16:35;;;;;;;12.52;10.02;;;;;;;8.58;62.52;98194.06;5051383;28;20120;-48
2021/11/22 01:19:01;;;;;;;15.13;10.80;;;;;;;8.64;62.54;98192.47;5052658;28;20021;-49
2021/11/22 01:21:27;;;;;;;13.60;9.07;;;;;;;8.68;62.52;98191.88;5052449;28;20048;-48
2021/11/22 01:23:54;;;;;;;15.57;9.95;;;;;;;8.75;62.43;98192.69;5034840;28;20017;-48
2021/11/22 01:26:20;;;;;;;14.70;9.63;;;;;;;8.78;61.82;98199.31;5052516;28;20028;-48
2021/11/22 01:28:46;;;;;;;14.48;9.65;;;;;;;8.73;62.39;98199.94;5052243;28;20083;-48
2021/11/22 01:31:12;;;;;;;18.55;9.88;;;;;;;8.68;61.99;98198.91;5052458;28;20481;-48
2021/11/22 01:33:37;;;;;;;19.38;9.48;;;;;;;8.54;62.19;98196.28;5034434;28;20124;-48
2021/11/22 01:36:04;;;;;;;12.40;9.27;;;;;;;8.47;62.55;98198.09;5034452;28;20037;-49
2021/11/22 01:38:29;;;;;;;16.02;11.10;;;;;;;8.37;63.03;98201.06;5052335;28;20120;-49
2021/11/22 01:40:56;;;;;;;17.63;9.95;;;;;;;8.38;62.99;98200.03;5034313;28;20111;-49
2021/11/22 01:43:22;;;;;;;17.45;10.40;;;;;;;8.34;63.02;98198.03;5052264;28;20086;-48
2021/11/22 01:45:50;;;;;;;22.98;16.77;;;;;;;8.34;63.06;98205.88;5052169;28;20021;-48
2021/11/22 01:48:18;;;;;;;16.73;9.73;;;;;;;8.32;63.82;98205.25;5052159;28;20108;-49
2021/11/22 01:50:46;;;;;;;16.48;9.82;;;;;;;8.36;63.68;98201.25;5052044;28;20036;-48
2021/11/22 01:53:13;;;;;;;14.32;9.88;;;;;;;8.39;63.34;98209.50;5052028;28;20052;-48
2021/11/22 01:55:39;;;;;;;20.45;10.45;;;;;;;8.44;63.31;98214.16;5051569;28;20043;-48
2021/11/22 01:58:05;;;;;;;14.38;10.48;;;;;;;8.43;63.34;98211.75;5052028;28;20047;-48
2021/11/22 02:00:39;;;;;;;20.10;11.38;;;;;;;8.47;63.98;98213.78;5051908;28;20048;-48
2021/11/22 02:03:06;;;;;;;13.25;9.32;;;;;;;8.57;63.73;98213.38;5051989;28;20032;-48
2021/11/22 02:05:33;;;;;;;18.08;9.93;;;;;;;8.49;63.42;98206.53;5051897;28;20021;-48
2021/11/22 02:07:59;;;;;;;15.82;9.48;;;;;;;8.45;63.72;98217.56;5051884;28;20167;-48
2021/11/22 02:10:26;;;;;;;20.52;10.55;;;;;;;8.35;63.71;98218.75;5033914;28;20504;-48
2021/11/22 02:12:52;;;;;;;18.52;11.25;;;;;;;8.30;63.55;98225.56;5051662;28;20482;-48
2021/11/22 02:15:19;;;;;;;16.88;9.88;;;;;;;8.25;63.66;98228.78;5051813;28;20048;-48
2021/11/22 02:17:47;;;;;;;13.98;8.15;;;;;;;8.27;63.81;98223.34;5051716;28;20437;-49
2021/11/22 02:20:17;;;;;;;13.20;9.02;;;;;;;8.30;64.12;98218.53;5051738;28;20014;-48
2021/11/22 02:22:45;;;;;;;15.05;8.80;;;;;;;8.31;63.48;98222.75;5051954;28;20029;-48
2021/11/22 02:25:14;;;;;;;15.73;9.18;;;;;;;8.27;63.49;98221.53;5033661;28;20494;-48
2021/11/22 02:27:40;;;;;;;14.10;10.30;;;;;;;8.24;63.81;98218.50;5051603;28;20033;-48
2021/11/22 02:30:11;;;;;;;14.68;8.65;;;;;;;8.23;63.70;98222.94;5051384;28;20045;-48
2021/11/22 02:32:38;;;;;;;15.82;9.23;;;;;;;8.18;64.54;98215.66;5051818;28;20021;-48
2021/11/22 02:35:07;;;;;;;16.40;9.20;;;;;;;8.20;64.49;98218.88;5051541;28;20025;-48
2021/11/22 02:37:33;;;;;;;17.25;9.52;;;;;;;8.26;64.28;98219.91;5051581;28;20017;-48
2021/11/22 02:39:58;;;;;;;26.75;20.63;;;;;;;8.31;64.20;98211.47;5033605;28;20103;-48
2021/11/22 02:42:29;;;;;;;14.30;10.02;;;;;;;8.24;63.89;98211.47;5051433;28;20021;-48
2021/11/22 02:44:56;;;;;;;22.65;16.33;;;;;;;8.19;64.48;98214.69;5033918;28;20041;-49
2021/11/22 02:47:23;;;;;;;16.48;10.02;;;;;;;8.19;64.56;98209.44;5051438;28;20025;-48
2021/11/22 02:49:49;;;;;;;21.70;10.98;;;;;;;8.23;64.37;98209.88;5051718;28;20494;-47
2021/11/22 02:52:15;;;;;;;17.45;9.40;;;;;;;8.25;64.09;98220.09;5051925;28;20402;-48
2021/11/22 02:54:42;;;;;;;23.27;10.40;;;;;;;8.20;64.29;98229.34;5033489;28;20119;-48
2021/11/22 02:57:09;;;;;;;19.45;10.43;;;;;;;8.23;64.27;98228.16;5051404;28;20449;-48
2021/11/22 02:59:39;;;;;;;16.23;10.38;;;;;;;8.26;64.23;98234.81;5033419;28;20079;-48
2021/11/22 03:02:07;;;;;;;18.95;10.10;;;;;;;8.30;64.18;98233.41;5051328;28;20045;-48
2021/11/22 03:04:36;;;;;;;15.52;10.60;;;;;;;8.33;64.51;98228.59;5051295;28;20032;-48
2021/11/22 03:07:02;;;;;;;19.20;8.75;;;;;;;8.27;64.63;98231.19;5052686;28;20021;-48
2021/11/22 03:09:28;;;;;;;18.52;9.52;;;;;;;8.30;64.96;98228.19;5055134;28;20025;-48
2021/11/22 03:11:56;;;;;;;19.95;10.30;;;;;;;8.36;64.87;98232.63;5037165;28;20021;-48
2021/11/22 03:14:24;;;;;;;18.38;9.65;;;;;;;8.31;64.66;98230.59;5055090;28;20108;-48
2021/11/22 03:16:51;;;;;;;20.63;9.63;;;;;;;8.30;64.74;98228.97;5055237;28;20446;-48
2021/11/22 03:19:17;;;;;;;17.23;9.63;;;;;;;8.30;64.36;98230.78;5055140;28;20029;-49
2021/11/22 03:21:44;;;;;;;21.55;10.07;;;;;;;8.23;64.47;98219.50;5054863;28;20394;-48
2021/11/22 03:24:10;;;;;;;16.77;10.10;;;;;;;8.25;64.35;98222.72;5054904;28;20584;-48
2021/11/22 03:26:36;;;;;;;16.80;10.00;;;;;;;8.17;64.52;98229.75;5054801;28;20049;-48
2021/11/22 03:29:02;;;;;;;13.68;8.93;;;;;;;8.18;65.02;98225.31;5054566;28;20083;-48
2021/11/22 03:31:27;;;;;;;18.38;9.98;;;;;;;8.07;64.58;98231.09;5054759;28;20040;-48
2021/11/22 03:33:53;;;;;;;14.65;8.80;;;;;;;8.02;64.80;98229.09;5036672;28;20018;-48
2021/11/22 03:36:19;;;;;;;15.90;9.18;;;;;;;8.07;65.29;98231.94;5054632;28;20466;-48
2021/11/22 03:38:45;;;;;;;14.40;8.75;;;;;;;8.03;65.24;98233.31;5054607;28;20402;-48
2021/11/22 03:41:15;;;;;;;17.30;9.68;;;;;;;7.99;65.48;98234.72;5036598;28;20043;-48
2021/11/22 03:46:11;;;;;;;20.20;10.18;;;;;;;8.00;65.56;98239.72;5054497;28;20037;-48
2021/11/22 03:48:37;;;;;;;17.45;9.77;;;;;;;8.02;64.96;98246.56;5054402;28;20029;-49
2021/11/22 03:51:04;;;;;;;15.07;9.52;;;;;;;8.00;64.64;98244.16;5054396;28;20044;-48
2021/11/22 03:53:30;;;;;;;15.57;9.70;;;;;;;7.87;65.10;98247.53;5054272;28;20017;-48
2021/11/22 03:55:57;;;;;;;17.63;9.73;;;;;;;7.78;66.12;98252.06;5054247;28;20035;-49
2021/11/22 03:58:23;;;;;;;14.77;9.80;;;;;;;7.84;65.48;98254.94;5054212;28;20092;-48
2021/11/22 04:00:49;;;;;;;16.40;10.07;;;;;;;7.89;65.28;98252.56;5054154;28;20107;-48
2021/11/22 04:03:14;;;;;;;24.42;9.98;;;;;;;7.96;65.59;98251.56;5054134;28;20029;-48
2021/11/22 04:05:40;;;;;;;20.10;9.75;;;;;;;8.03;65.33;98256.84;5036116;28;20063;-48
2021/11/22 04:08:08;;;;;;;21.38;9.90;;;;;;;7.96;65.21;98259.41;5054062;28;20487;-47
2021/11/22 04:10:37;;;;;;;13.35;8.90;;;;;;;7.95;65.27;98267.47;5036138;28;20021;-48
2021/11/22 04:13:05;;;;;;;15.98;9.70;;;;;;;7.97;65.57;98262.84;5053891;28;20036;-48
2021/11/22 04:15:32;;;;;;;15.25;9.50;;;;;;;7.96;65.20;98256.78;5053918;28;20025;-48
2021/11/22 04:17:57;;;;;;;15.13;8.95;;;;;;;8.01;65.64;98258.84;5053472;28;20033;-49
2021/11/22 04:20:24;;;;;;;16.83;9.90;;;;;;;8.24;65.22;98265.56;5053834;28;20556;-48
2021/11/22 04:22:50;;;;;;;15.88;9.80;;;;;;;8.36;63.97;98264.78;5035846;28;20403;-49
2021/11/22 04:25:16;;;;;;;22.38;11.55;;;;;;;8.19;63.98;98264.34;5053751;28;20028;-49
2021/11/22 04:27:42;;;;;;;19.98;10.80;;;;;;;7.98;64.82;98267.06;5053652;28;20538;-49
2021/11/22 04:30:11;;;;;;;20.98;10.35;;;;;;;7.82;65.75;98267.38;5035498;28;20124;-48
2021/11/22 04:32:37;;;;;;;23.67;10.30;;;;;;;7.74;65.65;98268.34;5053560;28;20032;-48
2021/11/22 04:35:08;;;;;;;20.40;9.85;;;;;;;7.66;65.67;98271.91;5053508;28;20021;-48
2021/11/22 04:37:35;;;;;;;21.65;10.68;;;;;;;7.65;65.58;98270.31;5054143;28;20029;-48
2021/11/22 04:40:03;;;;;;;34.83;16.77;;;;;;;7.72;65.97;98265.91;5035508;28;20017;-48
2021/11/22 04:42:29;;;;;;;21.65;10.30;;;;;;;7.84;65.52;98279.25;5053484;28;20112;-49
2021/11/22 04:44:55;;;;;;;22.65;10.52;;;;;;;8.01;65.43;98279.75;5053402;28;20464;-49
2021/11/22 04:47:21;;;;;;;27.95;12.18;;;;;;;8.05;65.31;98274.91;5035369;28;20502;-48
2021/11/22 04:49:48;;;;;;;24.20;10.07;;;;;;;7.98;65.15;98275.69;5053269;28;20095;-48
2021/11/22 04:52:14;;;;;;;20.67;10.20;;;;;;;7.92;64.87;98279.09;5053129;28;20027;-47
2021/11/22 04:54:41;;;;;;;18.95;9.98;;;;;;;7.95;64.80;98273.47;5053190;28;20391;-49
2021/11/22 04:57:07;;;;;;;24.92;11.38;;;;;;;8.07;65.31;98278.97;5035145;28;20056;-48
2021/11/22 04:59:34;;;;;;;17.30;9.95;;;;;;;8.15;64.22;98288.47;5053010;28;20615;-49
2021/11/22 05:02:00;;;;;;;15.70;10.35;;;;;;;8.00;64.75;98285.97;5053010;28;20045;-48
2021/11/22 05:04:26;;;;;;;22.42;10.25;;;;;;;8.11;64.45;98292.44;5052977;28;20028;-49
2021/11/22 05:06:52;;;;;;;19.80;11.00;;;;;;;8.23;64.56;98285.69;5052901;28;20032;-48
2021/11/22 05:09:19;;;;;;;17.77;9.88;;;;;;;8.34;63.39;98298.19;5052921;28;20023;-48
2021/11/22 05:11:46;;;;;;;23.80;13.25;;;;;;;8.27;64.21;98299.97;5052837;28;20108;-48
2021/11/22 05:14:12;;;;;;;23.60;10.45;;;;;;;8.15;63.44;98291.88;5052746;28;20569;-48
2021/11/22 05:16:38;;;;;;;18.50;9.57;;;;;;;8.14;63.95;98307.75;5052649;28;20024;-49
2021/11/22 05:19:04;;;;;;;18.92;10.15;;;;;;;8.09;63.92;98310.13;5052708;28;20032;-49
2021/11/22 05:21:32;;;;;;;16.00;10.00;;;;;;;8.02;64.20;98312.72;5052611;28;20048;-48
2021/11/22 05:24:01;;;;;;;16.17;10.00;;;;;;;8.00;64.65;98309.47;5052551;28;20119;-49
2021/11/22 05:26:29;;;;;;;18.55;10.40;;;;;;;7.99;64.34;98313.09;5053002;28;20394;-49
2021/11/22 05:28:55;;;;;;;23.50;11.15;;;;;;;7.95;64.63;98312.69;5033896;28;20576;-48
2021/11/22 05:31:23;;;;;;;15.75;10.27;;;;;;;7.96;64.38;98310.88;5052180;28;20025;-49
2021/11/22 05:33:52;;;;;;;18.13;9.93;;;;;;;7.99;64.87;98320.94;5052357;28;20375;-49
2021/11/22 05:36:18;;;;;;;19.02;10.52;;;;;;;8.00;64.37;98322.53;5052316;28;20083;-48
2021/11/22 05:38:45;;;;;;;25.10;10.63;;;;;;;7.90;64.18;98322.88;5052312;28;20437;-49
2021/11/22 05:41:11;;;;;;;16.80;9.70;;;;;;;7.91;64.76;98324.50;5034344;28;20043;-48
2021/11/22 05:43:36;;;;;;;15.63;10.48;;;;;;;7.80;64.49;98319.81;5034400;28;20021;-48
2021/11/22 05:46:04;;;;;;;23.08;12.80;;;;;;;7.66;64.67;98321.53;5034216;28;20029;-48
2021/11/22 05:48:31;;;;;;;15.73;10.20;;;;;;;7.69;65.30;98322.97;5034209;28;20079;-48
2021/11/22 05:50:57;;;;;;;22.38;11.40;;;;;;;7.78;64.50;98321.81;5034186;28;20036;-48
2021/11/22 05:53:24;;;;;;;18.38;10.90;;;;;;;7.74;64.91;98323.19;5052007;28;20490;-48
2021/11/22 05:55:52;;;;;;;16.33;9.30;;;;;;;7.79;65.03;98315.59;5052028;28;20016;-48
2021/11/22 05:58:20;;;;;;;17.48;10.07;;;;;;;7.93;65.12;98326.94;5051997;28;20021;-48
2021/11/22 06:00:47;;;;;;;19.38;11.00;;;;;;;8.02;64.51;98327.59;5051957;28;20035;-48
2021/11/22 06:03:13;;;;;;;17.88;9.60;;;;;;;8.03;64.10;98324.78;5051922;28;20017;-48
2021/11/22 06:05:39;;;;;;;22.27;11.27;;;;;;;7.99;64.41;98329.59;5051889;28;20092;-48
2021/11/22 06:08:06;;;;;;;14.15;9.52;;;;;;;7.93;64.57;98326.94;5051873;28;20553;-49
2021/11/22 06:10:33;;;;;;;18.23;10.60;;;;;;;7.87;65.02;98325.06;5033911;28;20467;-48
2021/11/22 06:12:59;;;;;;;18.60;9.88;;;;;;;7.76;64.83;98327.22;5051629;28;20100;-48
2021/11/22 06:15:26;;;;;;;16.40;10.48;;;;;;;7.74;64.71;98333.63;5033803;28;20100;-48
2021/11/22 06:17:52;;;;;;;21.58;12.40;;;;;;;7.77;65.42;98334.06;5051717;28;20029;-48
2021/11/22 06:20:18;;;;;;;33.38;12.40;;;;;;;7.79;64.62;98332.06;5051627;28;20028;-48
2021/11/22 06:22:44;;;;;;;19.08;10.93;;;;;;;7.79;64.81;98333.88;5051723;28;20032;-49
2021/11/22 06:25:11;;;;;;;18.58;11.15;;;;;;;7.71;65.03;98332.22;5051655;28;20033;-48
2021/11/22 06:27:38;;;;;;;23.00;10.48;;;;;;;7.58;64.69;98342.56;5051675;28;20372;-48
2021/11/22 06:30:06;;;;;;;15.18;9.57;;;;;;;7.47;65.68;98348.31;5051417;28;20049;-49
2021/11/22 06:32:32;;;;;;;16.92;10.00;;;;;;;7.38;66.48;98345.84;5051542;28;20103;-48
2021/11/22 06:34:58;;;;;;;22.38;12.05;;;;;;;7.43;66.21;98362.75;5033688;28;20116;-49
2021/11/22 06:37:26;;;;;;;18.80;10.32;;;;;;;7.52;66.32;98358.97;5051534;28;20021;-48
2021/11/22 06:39:53;;;;;;;18.02;10.48;;;;;;;7.61;66.05;98363.09;5051544;28;20021;-48
2021/11/22 06:42:21;;;;;;;19.17;11.35;;;;;;;7.60;66.12;98358.84;5037196;28;20036;-48
2021/11/22 06:44:48;;;;;;;18.42;11.05;;;;;;;7.68;65.53;98361.31;5055560;28;20017;-48
2021/11/22 06:47:14;;;;;;;21.70;11.38;;;;;;;7.73;65.82;98361.56;5055530;28;20029;-48
2021/11/22 06:49:40;;;;;;;19.70;11.00;;;;;;;7.73;65.98;98363.38;5037656;28;20020;-47
2021/11/22 06:52:07;;;;;;;30.48;12.80;;;;;;;7.68;66.95;98361.31;5037480;28;20371;-47
2021/11/22 06:54:33;;;;;;;22.35;11.65;;;;;;;7.62;67.55;98371.72;5037503;28;20021;-48
2021/11/22 06:57:00;;;;;;;19.90;10.52;;;;;;;7.48;68.26;98376.03;5037522;28;20032;-48
2021/11/22 06:59:28;;;;;;;25.55;11.20;;;;;;;7.48;68.60;98382.03;5055394;28;20021;-48
2021/11/22 07:01:55;;;;;;;29.02;11.00;;;;;;;7.53;68.88;98374.47;5055301;28;20029;-48
2021/11/22 07:04:20;;;;;;;20.58;11.82;;;;;;;7.47;68.40;98371.81;5055257;28;20393;-48
2021/11/22 07:06:46;;;;;;;28.58;10.82;;;;;;;7.45;68.59;98376.41;5037286;28;20025;-48
2021/11/22 07:09:12;;;;;;;30.63;12.55;;;;;;;7.45;69.05;98382.44;5055221;28;20028;-48
2021/11/22 07:11:38;;;;;;;39.13;18.02;;;;;;;7.46;69.35;98384.03;5037161;28;20029;-48
2021/11/22 07:14:05;;;;;;;28.60;12.52;;;;;;;7.38;69.46;98379.78;5055057;28;20086;-49
2021/11/22 07:16:32;;;;;;;32.55;13.32;;;;;;;7.30;69.60;98389.50;5037096;28;20512;-48
2021/11/22 07:18:58;;;;;;;23.65;11.60;;;;;;;7.34;69.43;98395.97;5054966;28;20097;-48
2021/11/22 07:21:24;;;;;;;25.92;12.68;;;;;;;7.32;69.54;98401.38;5054932;28;20025;-48
2021/11/22 07:23:51;;;;;;;29.17;13.02;;;;;;;7.33;70.28;98395.19;5054937;28;20036;-48
2021/11/22 07:26:17;;;;;;;34.33;15.05;;;;;;;7.36;70.27;98407.88;5054822;28;20021;-49
2021/11/22 07:28:42;;;;;;;32.13;13.32;;;;;;;7.30;70.27;98407.78;5054499;28;20195;-48
2021/11/22 07:31:09;;;;;;;31.33;13.70;;;;;;;7.26;70.42;98403.94;5054807;28;20025;-48
2021/11/22 07:33:34;;;;;;;21.23;12.07;;;;;;;7.25;70.75;98407.56;5054652;28;20032;-48
2021/11/22 07:36:00;;;;;;;19.33;11.73;;;;;;;7.14;69.83;98414.03;5036733;28;20512;-48
2021/11/22 07:38:26;;;;;;;18.90;11.63;;;;;;;7.12;70.06;98416.03;5036733;28;20516;-48
2021/11/22 07:40:52;;;;;;;21.88;12.27;;;;;;;7.19;69.35;98422.94;5054641;28;20021;-48
2021/11/22 07:43:18;;;;;;;16.13;10.23;;;;;;;7.25;68.83;98425.81;5054509;28;20044;-49
2021/11/22 07:45:45;;;;;;;18.73;11.93;;;;;;;7.19;68.95;98425.56;5054499;28;20013;-49
2021/11/22 07:48:12;;;;;;;18.33;11.57;;;;;;;7.23;69.05;98420.78;5036534;28;20025;-48
2021/11/22 07:50:38;;;;;;;17.92;9.98;;;;;;;7.28;68.32;98422.81;5054345;28;20127;-48
2021/11/22 07:53:04;;;;;;;21.60;10.68;;;;;;;7.28;68.29;98428.84;5053507;28;20036;-48
2021/11/22 07:55:30;;;;;;;20.98;12.18;;;;;;;7.29;69.63;98429.69;5054308;28;20013;-49
2021/11/22 07:57:57;;;;;;;22.85;12.30;;;;;;;7.33;69.26;98430.91;5036330;28;20021;-49
2021/11/22 08:00:25;;;;;;;26.35;12.18;;;;;;;7.32;69.04;98435.31;5054457;28;20403;-49
2021/11/22 08:02:51;;;;;;;17.50;11.80;;;;;;;7.32;69.06;98443.16;5036224;28;20029;-48
2021/11/22 08:05:17;;;;;;;17.92;11.98;;;;;;;7.35;68.66;98439.38;5054140;28;20103;-48
2021/11/22 08:07:43;;;;;;;21.95;13.82;;;;;;;7.41;68.74;98443.84;5054097;28;20083;-49
2021/11/22 08:10:18;;;;;;;19.90;14.13;;;;;;;7.45;69.21;98444.28;5036180;28;20080;-48
2021/11/22 08:12:43;;;;;;;15.70;11.52;;;;;;;7.50;68.30;98437.50;5053999;28;20036;-49
2021/11/22 08:15:10;;;;;;;23.70;14.10;;;;;;;7.55;68.19;98444.78;5053916;28;20021;-49
2021/11/22 08:17:39;;;;;;;19.95;13.48;;;;;;;7.42;67.64;98448.06;5024528;28;20037;-49
2021/11/22 08:20:07;;;;;;;25.65;15.18;;;;;;;7.37;68.58;98451.25;5032895;28;20055;-49
2021/11/22 08:22:34;;;;;;;23.23;11.52;;;;;;;7.46;68.77;98456.34;5053367;28;20029;-49
2021/11/22 08:24:59;;;;;;;16.67;11.07;;;;;;;7.53;69.13;98454.63;5053799;28;20372;-49
2021/11/22 08:27:28;;;;;;;16.75;12.88;;;;;;;7.59;68.41;98459.09;5053667;28;20031;-49
2021/11/22 08:29:55;;;;;;;19.45;13.35;;;;;;;7.54;67.65;98464.06;5035562;28;20052;-48
2021/11/22 08:32:21;;;;;;;18.65;11.95;;;;;;;7.49;67.62;98469.84;5035660;28;20112;-48
2021/11/22 08:34:47;;;;;;;17.92;11.32;;;;;;;7.42;68.00;98460.31;5035619;28;20032;-48
2021/11/22 08:37:13;;;;;;;20.67;11.93;;;;;;;7.44;68.50;98466.97;5035510;28;20025;-48
2021/11/22 08:39:39;;;;;;;21.35;14.63;;;;;;;7.54;68.04;98470.06;5053483;28;20067;-50
2021/11/22 08:42:06;;;;;;;18.73;11.25;;;;;;;7.60;67.97;98471.94;5035502;28;20057;-49
2021/11/22 08:44:33;;;;;;;21.33;12.32;;;;;;;7.71;67.33;98470.66;5053429;28;20112;-48
2021/11/22 08:47:00;;;;;;;19.92;11.20;;;;;;;7.78;66.82;98479.34;5053302;28;20028;-48
2021/11/22 08:49:28;;;;;;;23.13;11.82;;;;;;;7.79;67.07;98478.38;5053331;28;20534;-48
2021/11/22 08:51:54;;;;;;;1938.80;999.90;;;;;;;7.82;67.16;98477.16;5053130;28;20079;-49
2021/11/22 08:54:19;;;;;;;1101.50;775.55;;;;;;;7.80;67.43;98485.19;5053181;28;20498;-49
2021/11/22 08:56:45;;;;;;;1213.68;788.13;;;;;;;7.90;67.48;98482.25;5035151;28;20536;-49
2021/11/22 08:59:11;;;;;;;264.75;190.05;;;;;;;7.90;66.16;98478.84;5053118;28;20478;-47
2021/11/22 09:01:38;;;;;;;69.47;47.47;;;;;;;7.86;66.37;98495.91;5035006;28;20064;-48
2021/11/22 09:04:05;;;;;;;94.03;70.00;;;;;;;7.93;66.01;98496.78;5052066;28;20025;-49
2021/11/22 09:06:34;;;;;;;36.65;23.42;;;;;;;7.91;66.06;98501.38;5035007;28;20021;-48
2021/11/22 09:09:00;;;;;;;43.22;26.10;;;;;;;7.93;66.00;98499.41;5046808;28;20025;-49
2021/11/22 09:11:26;;;;;;;25.92;15.35;;;;;;;7.99;66.02;98490.81;5052887;28;20514;-49
2021/11/22 09:13:51;;;;;;;25.13;14.88;;;;;;;8.07;65.97;98501.13;5034844;28;20032;-48
2021/11/22 09:16:17;;;;;;;24.10;13.30;;;;;;;8.10;64.71;98500.72;5032270;28;20028;-49
2021/11/22 09:18:43;;;;;;;21.45;13.55;;;;;;;8.09;64.74;98500.91;5034782;28;20038;-49
2021/11/22 09:21:09;;;;;;;28.98;16.88;;;;;;;8.06;64.63;98503.91;5052701;28;20017;-49
2021/11/22 09:23:35;;;;;;;26.30;14.18;;;;;;;8.07;64.73;98506.34;5052717;28;20029;-48
2021/11/22 09:26:01;;;;;;;15.93;11.32;;;;;;;8.17;63.93;98504.22;5052575;28;20390;-49
2021/11/22 09:28:27;;;;;;;22.70;15.77;;;;;;;8.12;64.45;98508.38;5028608;28;20034;-48
2021/11/22 09:30:53;;;;;;;15.63;11.25;;;;;;;8.13;64.53;98510.81;5032666;28;20028;-49
2021/11/22 09:33:18;;;;;;;19.42;11.25;;;;;;;8.17;64.32;98514.66;5032523;28;20022;-48
2021/11/22 09:35:44;;;;;;;23.00;12.55;;;;;;;8.17;64.25;98521.72;5032577;28;20503;-48
2021/11/22 09:38:10;;;;;;;27.92;13.65;;;;;;;8.22;63.90;98521.13;5032567;28;20018;-48
2021/11/22 09:40:37;;;;;;;24.60;16.20;;;;;;;8.29;64.09;98522.81;5032468;28;20021;-48
2021/11/22 09:43:04;;;;;;;24.27;11.75;;;;;;;8.32;63.60;98530.25;5032424;28;20026;-48
2021/11/22 09:45:30;;;;;;;14.93;10.80;;;;;;;8.37;63.60;98530.50;5032339;28;20437;-48
2021/11/22 09:47:58;;;;;;;20.38;12.13;;;;;;;8.42;63.49;98532.59;5032331;28;20013;-49
2021/11/22 09:50:25;;;;;;;18.88;11.18;;;;;;;8.52;63.20;98534.88;5032028;28;20502;-49
2021/11/22 09:52:51;;;;;;;25.25;11.75;;;;;;;8.58;62.99;98547.19;5032125;28;20067;-48
2021/11/22 09:55:17;;;;;;;16.20;11.73;;;;;;;8.49;62.39;98537.84;5032133;28;20025;-48
2021/11/22 09:57:43;;;;;;;21.77;10.50;;;;;;;8.33;62.95;98541.53;5032004;28;20022;-48
2021/11/22 10:00:11;;;;;;;14.75;10.90;;;;;;;8.31;63.02;98546.97;5032041;28;20032;-48
2021/11/22 10:02:47;;;;;;;22.17;11.75;;;;;;;8.37;63.72;98542.75;5032044;28;20025;-48
2021/11/22 10:05:26;;;;;;;25.83;12.93;;;;;;;8.54;62.99;98541.53;5032083;28;20033;-49
2021/11/22 10:08:07;;;;;;;22.52;11.20;;;;;;;8.67;63.20;98543.44;5032070;28;20032;-48
2021/11/22 10:10:51;;;;;;;18.45;10.85;;;;;;;8.80;62.18;98537.47;5031923;28;20029;-49
2021/11/22 10:13:34;;;;;;;20.13;11.57;;;;;;;8.87;62.13;98538.28;5013966;28;20079;-48
2021/11/22 10:16:22;;;;;;;22.27;11.60;;;;;;;8.91;62.26;98539.53;5031548;28;20030;-48
2021/11/22 10:19:07;;;;;;;18.67;11.27;;;;;;;8.92;61.98;98546.38;5031976;28;20036;-48
2021/11/22 10:21:38;;;;;;;22.52;13.65;;;;;;;8.89;61.63;98531.06;5031450;28;20042;-49
2021/11/22 10:24:09;;;;;;;17.05;11.85;;;;;;;8.93;62.08;98531.50;5031794;28;20034;-49
2021/11/22 10:26:42;;;;;;;22.33;12.25;;;;;;;8.99;61.03;98535.94;5031777;28;20100;-48
2021/11/22 10:29:09;;;;;;;18.20;12.13;;;;;;;8.91;60.60;98534.28;5031600;28;20137;-48
2021/11/22 10:31:37;;;;;;;23.50;16.08;;;;;;;8.84;61.69;98538.69;5031777;28;20017;-48
2021/11/22 10:34:03;;;;;;;22.98;13.90;;;;;;;8.82;61.87;98535.47;5031606;28;20116;-49
2021/11/22 10:36:32;;;;;;;19.13;13.10;;;;;;;8.80;61.70;98542.69;5031672;28;20021;-48
2021/11/22 10:38:59;;;;;;;23.13;15.15;;;;;;;8.82;61.46;98547.75;5031616;28;20464;-49
2021/11/22 10:41:39;;;;;;;23.42;14.30;;;;;;;8.79;61.80;98547.13;5031619;28;20022;-48
2021/11/22 10:44:13;;;;;;;33.10;15.93;;;;;;;8.74;61.64;98543.47;5031653;28;20044;-49
2021/11/22 10:47:00;;;;;;;27.08;20.52;;;;;;;8.78;62.02;98550.72;5031599;28;20036;-49
2021/11/22 10:49:45;;;;;;;24.50;19.45;;;;;;;8.83;61.61;98544.91;5013730;28;20039;-48
2021/11/22 10:52:15;;;;;;;20.83;14.10;;;;;;;8.81;61.66;98546.91;5031437;28;20109;-49
2021/11/22 10:54:55;;;;;;;32.42;23.33;;;;;;;8.87;61.77;98543.53;5031508;28;20022;-48
2021/11/22 10:57:20;;;;;;;21.23;13.15;;;;;;;8.95;61.30;98548.63;5031456;28;20021;-49
2021/11/22 10:59:46;;;;;;;28.08;13.90;;;;;;;8.94;60.98;98541.78;5013749;28;20406;-49
2021/11/22 11:02:12;;;;;;;19.33;12.10;;;;;;;9.06;61.49;98536.81;5030111;28;20049;-49
2021/11/22 11:04:43;;;;;;;17.48;12.90;;;;;;;9.10;60.65;98537.22;5031335;28;20443;-48
2021/11/22 11:07:10;;;;;;;22.73;15.48;;;;;;;9.03;61.17;98539.00;5031344;28;20029;-49
2021/11/22 11:09:53;;;;;;;24.20;13.68;;;;;;;9.02;60.94;98540.81;5013674;28;20384;-49
2021/11/22 11:12:26;;;;;;;28.67;14.38;;;;;;;9.01;60.97;98541.78;5031335;28;20431;-49
2021/11/22 11:14:57;;;;;;;52.00;42.40;;;;;;;8.95;61.44;98538.16;5031259;28;20036;-49
2021/11/22 11:17:35;;;;;;;24.77;14.20;;;;;;;8.97;61.58;98540.56;5031352;28;20028;-49
2021/11/22 11:20:14;;;;;;;22.58;12.82;;;;;;;8.99;60.63;98534.16;5013367;28;20026;-48
2021/11/22 11:22:40;;;;;;;19.42;12.90;;;;;;;9.08;60.68;98537.41;5013688;28;20028;-48
2021/11/22 11:25:07;;;;;;;21.85;13.25;;;;;;;9.06;60.74;98536.00;5031208;28;20113;-48
2021/11/22 11:27:40;;;;;;;22.00;13.07;;;;;;;9.06;60.77;98538.63;5030487;28;20036;-49
2021/11/22 11:30:07;;;;;;;25.88;14.55;;;;;;;9.08;60.54;98534.00;5054075;28;20107;-49